LZIB Airport Information

Runway Information
Runway 04 Length 9515 ft width 197 ft
Elevation 436 ft Threshold 0 ft Heading 44
Runway 22 Length 9515 ft Width 197 ft
Elevation 430 ft Threshold 0 ft Heading 224
Runway 13 Length 10466 ft width 148 ft
Elevation 433 ft Threshold 0 ft Heading 134
Runway 31 Length 10466 ft Width 148 ft
Elevation 434 ft Threshold 777 ft Heading 314
Airport Frequencies
Type APP Name APP Frequency 120.9 MHZ
Type ATIS Name ATIS Frequency 128.65 MHZ
Type TWR Name TWR Frequency 118.3 MHZ
Airport Navaids
Type VOR-DME Name Janovce Frequency 110800 KHZ
Type NDB Name Stefanik South Frequency 330 KHZ
Type NDB Name Stefanik North Frequency 391 KHZ
Airport Weather Information & NOTAM
ADDS - METARS form results

(1456 UTC 25 October 2021)
Data provider http://aviationweather.gov/metar/data/
 
METAR text: LZIB 251430Z 15011KT CAVOK 13/01 Q1025 NOSIG
Conditions at: LZIB (BRATISLAVA IVANK, SK) observed 1430 UTC 25 October 2021
Temperature: 13.0°C (55°F)
Dewpoint: 1.0°C (34°F) [RH = 44%]
Pressure (altimeter): 30.27 inches Hg (1025.0 mb)
Winds: from the SSE (150 degrees) at 13 MPH (11 knots; 5.7 m/s)
Visibility: 6 or more miles (10+ km)
Ceiling: ceiling and visibility are OK
Clouds: unknown
Weather: no significant weather observed at this time

METAR text: LZIB 251400Z 14012KT CAVOK 13/01 Q1025 NOSIG
Conditions at: LZIB (BRATISLAVA IVANK, SK) observed 1400 UTC 25 October 2021
Temperature: 13.0°C (55°F)
Dewpoint: 1.0°C (34°F) [RH = 44%]
Pressure (altimeter): 30.27 inches Hg (1025.0 mb)
Winds: from the SE (140 degrees) at 14 MPH (12 knots; 6.2 m/s)
Visibility: 6 or more miles (10+ km)
Ceiling: ceiling and visibility are OK
Clouds: unknown
Weather: no significant weather observed at this time

Forecast for: LZIB (BRATISLAVA IVANK, SK)
Text: TAF LZIB 251100Z 2512/2612 15012KT CAVOK
Forecast period: 1200 to 2000 UTC 25 October 2021
Forecast type: FROM: standard forecast or significant change
Winds: from the SSE (150 degrees) at 14 MPH (12 knots; 6.2 m/s)
Visibility: 6 or more miles (10+ km)
Ceiling: unknown
Clouds: missing
Weather: NSW  (no significant weather)
Text: PROB40
Forecast period: 1200 to 1500 UTC 25 October 2021
Forecast type: TEMPORARY: The following changes expected for less than half the time period
Winds: from the SE (140 degrees) at 17 MPH (15 knots; 7.7 m/s)
gusting to 29 MPH (25 knots; 12.9 m/s)
Visibility: missing
Ceiling: unknown
Clouds: missing
Weather: no significant weather forecast for this period
Text: TEMPO 2512/2515 14015G25KT
Forecast period: 2000 UTC 25 October 2021 to 1200 UTC 26 October 2021
Forecast type: BECOMING: Conditions expected to become as follows by 2200 UTC 25 October 2021
Winds: from the ESE (110 degrees) at 7 MPH (6 knots; 3.1 m/s)
Visibility: 6 or more miles (10+ km)
Ceiling: unknown
Clouds: missing
Weather: NSW  (no significant weather)